METAR Data
IDs: Format: Raw Decoded Include TAF

Data at: 0513 UTC 03 Jul 2022

KWVI 030453Z AUTO 10005KT 10SM CLR 13/11 A3001 RMK AO2 SLP160 T01280106
KWVI 030353Z AUTO 11005KT 10SM CLR 13/11 A2999 RMK AO2 SLP153 T01330106
KWVI 030253Z AUTO 11007KT 10SM CLR 16/11 A2998 RMK AO2 SLP150 T01610111 53001
KWVI 030153Z AUTO 12010KT 10SM CLR 18/12 A2997 RMK AO2 SLP147 T01780117
KWVI 030053Z AUTO 12009KT 10SM CLR 20/12 A2997 RMK AO2 SLP147 T02000117
KWVI 022353Z AUTO VRB04KT 10SM CLR 21/11 A2997 RMK AO2 SLP149 T02060111 10217 20156 58012
KWVI 022253Z AUTO 10SM CLR 21/12 A2998 RMK AO2 SLP153 T02110117
KWVI 022153Z AUTO 17006KT 10SM CLR 19/11 A3000 RMK AO2 SLP158 T01940111
KWVI 022053Z AUTO 23006G14KT 10SM CLR 19/11 A3001 RMK AO2 SLP161 T01940111 58004
KWVI 022012Z AUTO 21008KT 10SM SCT021 19/11 A3002 RMK AO2 T01890111
KWVI 021953Z AUTO 20009G14KT 10SM BKN020 18/11 A3002 RMK AO2 SLP165 T01830106
KWVI 021853Z AUTO VRB04KT 10SM BKN021 18/11 A3002 RMK AO2 SLP165 T01830111
KWVI 021753Z AUTO 18005KT 10SM BKN020 16/11 A3002 RMK AO2 SLP165 T01610106 10161 20117 50002
KWVI 021653Z AUTO 20004KT 10SM OVC016 14/11 A3003 RMK AO2 SLP168 T01390106
KWVI 021553Z AUTO VRB03KT 10SM OVC016 13/10 A3002 RMK AO2 SLP166 T01330100
KWVI 021453Z AUTO 00000KT 10SM OVC016 13/10 A3001 RMK AO2 SLP163 T01330100 51006
KWVI 021429Z AUTO 00000KT 10SM OVC016 13/10 A3001 RMK AO2 T01280100
KWVI 021353Z AUTO 00000KT 10SM OVC014 13/10 A3001 RMK AO2 SLP161 T01280100
KWVI 021301Z AUTO 26004KT 10SM OVC011 12/11 A3001 RMK AO2 T01170106
KWVI 021253Z AUTO 27003KT 10SM OVC009 12/11 A3001 RMK AO2 CIG 009V013 SLP160 T01170106
KWVI 021153Z AUTO 00000KT 10SM OVC009 12/11 A3000 RMK AO2 SLP157 T01220106 10133 20117 56005
KWVI 021053Z AUTO 00000KT 9SM OVC008 13/11 A3000 RMK AO2 SLP159 T01280106
KWVI 020953Z AUTO 00000KT 10SM OVC009 13/11 A3001 RMK AO2 SLP160 T01280106
KWVI 020853Z AUTO 00000KT 10SM OVC009 13/11 A3001 RMK AO2 SLP163 T01280106 55000
KWVI 020753Z AUTO 10004KT 10SM OVC008 13/11 A3001 RMK AO2 SLP162 T01280106 402000111
KWVI 020653Z AUTO 07004KT 10SM OVC007 13/11 A3001 RMK AO2 SLP162 T01280111
KWVI 020553Z AUTO 08006KT 10SM OVC007 13/11 A3001 RMK AO2 SLP162 T01280106 10194 20128 53009
No TAF found for KWVI

KSNS 030453Z AUTO 25010KT 10SM FEW015 OVC021 16/11 A3001 RMK AO2 SLP172 T01560106 TSNO
KSNS 030438Z AUTO 25011KT 10SM SCT014 OVC022 16/11 A3001 RMK AO2 T01560106 TSNO
KSNS 030431Z AUTO 25010KT 10SM BKN014 OVC022 16/11 A3001 RMK AO2 T01560111 TSNO
KSNS 030353Z AUTO 26013KT 10SM OVC015 16/11 A3001 RMK AO2 SLP169 T01610111 TSNO
KSNS 030253Z AUTO 26014KT 10SM OVC015 16/11 A3000 RMK AO2 SLP168 T01610106 55002 TSNO
KSNS 030153Z 26012KT 10SM BKN016 17/11 A3000 RMK AO2 SLP167 T01720111
KSNS 030053Z 28013KT 10SM OVC017 17/11 A3000 RMK AO2 SLP168 T01720111
KSNS 022353Z 28014KT 10SM BKN021 19/11 A3001 RMK AO2 SLP170 T01890111 10200 20150 58004
KSNS 022253Z 30013G20KT 10SM BKN021 19/11 A3002 RMK AO2 SLP173 T01940111
KSNS 022153Z 29013G21KT 10SM OVC022 19/11 A3002 RMK AO2 SLP173 T01940106
KSNS 022053Z 29013KT 10SM BKN020 19/11 A3002 RMK AO2 SLP175 T01890106 55003
KSNS 021953Z 29011G18KT 10SM FEW010 BKN020 19/11 A3002 RMK AO2 SLP173 T01890106
KSNS 021853Z 26008KT 10SM OVC015 17/11 A3003 RMK AO2 SLP177 T01670106
KSNS 021753Z 29009KT 10SM OVC011 16/11 A3003 RMK AO2 SLP178 T01560106 10156 20139 51005
KSNS 021653Z 28010KT 10SM OVC011 15/11 A3003 RMK AO2 SLP177 T01500106
KSNS 021553Z 28007KT 10SM OVC010 14/11 A3003 RMK AO2 SLP177 T01440106
KSNS 021453Z 25011KT 10SM OVC010 14/11 A3001 RMK AO2 SLP172 T01440106 51007
KSNS 021353Z 26010KT 10SM OVC010 14/11 A3001 RMK AO2 SLP171 T01440106
KSNS 021253Z 25010KT 10SM OVC010 14/11 A3000 RMK AO2 SLP169 T01440106
KSNS 021153Z 25009KT 10SM OVC011 14/11 A2999 RMK AO2 SLP166 T01440106 10144 20139 56006
KSNS 021053Z AUTO 27008KT 10SM OVC011 14/11 A3000 RMK AO2 CIG 010V013 SLP167 T01440106 TSNO
KSNS 020953Z AUTO 27008KT 10SM OVC010 14/11 A3001 RMK AO2 SLP170 T01440106 TSNO
KSNS 020923Z AUTO 27006KT 10SM OVC010 14/11 A3001 RMK AO2 T01440106 TSNO
KSNS 020853Z AUTO 26011KT 10SM OVC009 14/11 A3001 RMK AO2 SLP172 T01440106 56002 TSNO
KSNS 020753Z AUTO 26012KT 10SM OVC009 14/11 A3001 RMK AO2 SLP173 T01440106 401940133 TSNO
KSNS 020653Z AUTO 27013KT 10SM OVC007 14/11 A3001 RMK AO2 SLP172 T01440106 TSNO
KSNS 020553Z AUTO 27013KT 10SM OVC008 14/11 A3002 RMK AO2 SLP174 T01440111 10183 20144 53005 TSNO

KSNS 022333Z 0300/0324 29012G18KT P6SM SCT015 BKN020
  FM030300 28011KT P6SM OVC012
  FM030500 27009KT 6SM -DZ BR OVC007
  FM031500 VRB06KT P6SM BKN012
  FM031900 29009KT P6SM SCT015 SCT120
  FM032200 27014G21KT P6SM FEW018 SCT100


KMRY 030508Z AUTO 25009KT 10SM BKN015 OVC023 15/11 A3004 RMK AO2 T01500106
KMRY 030454Z AUTO 26008KT 10SM OVC013 15/11 A3004 RMK AO2 SLP183 T01500106
KMRY 030354Z 29009KT 10SM OVC012 15/11 A3003 RMK AO2 SLP180 T01500111
KMRY 030254Z 28008KT 10SM OVC013 15/11 A3002 RMK AO2 SLP179 T01500106 55002
KMRY 030154Z 27009KT 10SM BKN013 OVC017 16/11 A3002 RMK AO2 SLP177 T01560106
KMRY 030054Z 29010G18KT 10SM SCT013 BKN017 16/11 A3002 RMK AO2 SLP179 T01610106
KMRY 030001Z 28011G19KT 250V320 10SM OVC013 17/11 A3003 RMK AO2 T01670106
KMRY 022354Z 27014G17KT 10SM SCT013 BKN019 17/11 A3003 RMK AO2 SLP181 T01670106 10183 20150 58005
KMRY 022254Z 30012G20KT 10SM SCT016 BKN020 17/11 A3004 RMK AO2 SLP183 T01720106
KMRY 022154Z 31008G18KT 10SM BKN019 17/11 A3004 RMK AO2 SLP185 T01720106
KMRY 022054Z 30011G18KT 10SM BKN018 18/11 A3005 RMK AO2 SLP186 T01780106 53001
KMRY 021954Z 32009KT 10SM BKN018 17/11 A3004 RMK AO2 SLP185 T01670106
KMRY 021941Z 32009KT 10SM BKN018 17/11 A3005 RMK AO2 T01720106
KMRY 021854Z 29008KT 10SM OVC013 16/11 A3005 RMK AO2 SLP186 T01560106
KMRY 021754Z 30007KT 10SM OVC013 15/11 A3004 RMK AO2 SLP185 T01500106 10150 20133 50005
KMRY 021654Z 30007G14KT 9SM OVC013 14/11 A3005 RMK AO2 SLP186 T01440106
KMRY 021621Z 27008KT 10SM OVC013 14/11 A3005 RMK AO2 T01440106
KMRY 021602Z 27009KT 9SM BKN009 OVC014 14/11 A3005 RMK AO2 CIG 007V012 T01440106
KMRY 021554Z 29008KT 10SM OVC012 14/11 A3004 RMK AO2 SLP185 T01440106
KMRY 021454Z 28006KT 7SM FEW008 OVC011 14/11 A3003 RMK AO2 SLP181 T01390111 51007
KMRY 021437Z 28008KT 10SM OVC011 14/11 A3003 RMK AO2 T01390111
KMRY 021354Z 28006KT 6SM BR BKN009 OVC012 14/11 A3002 RMK AO2 SLP179 T01390106
KMRY 021254Z 28008KT 6SM BR OVC009 14/11 A3002 RMK AO2 CIG 006V011 SLP177 T01390106
KMRY 021154Z AUTO 29005KT 10SM OVC009 14/11 A3001 RMK AO2 CIG 007V012 SLP174 T01390106 10139 20133 58005
KMRY 021054Z AUTO 26007KT 10SM OVC010 14/11 A3001 RMK AO2 CIG 008V012 SLP175 T01390106
KMRY 020954Z AUTO 24007KT 10SM OVC008 14/11 A3002 RMK AO2 CIG 007V012 SLP178 T01390106
KMRY 020854Z AUTO 29006KT 10SM OVC007 14/11 A3003 RMK AO2 SLP179 T01390111 56004
KMRY 020754Z AUTO 28007KT 10SM OVC006 14/11 A3003 RMK AO2 SLP181 T01390111 401780128
KMRY 020654Z AUTO 27007KT 10SM OVC005 14/11 A3003 RMK AO2 SLP180 T01390111
KMRY 020554Z AUTO 26009KT 10SM OVC005 14/11 A3004 RMK AO2 SLP183 T01390111 10172 20133 53004

KMRY 022333Z 0300/0324 29011G18KT P6SM BKN015 OVC019
  FM030200 27009KT P6SM OVC011
  FM030400 25008KT 6SM -DZ BR OVC006
  FM031200 VRB05KT P6SM OVC009
  FM031600 28007KT P6SM BKN012
  FM032000 29011G18KT P6SM SCT015 SCT120


KSJC 030453Z 32012KT 10SM BKN022 16/10 A3001 RMK AO2 SLP163 T01560100
KSJC 030353Z 33011KT 10SM FEW013 BKN020 15/11 A3000 RMK AO2 SLP158 T01500106
KSJC 030349Z 34014KT 10SM FEW013 BKN020 16/11 A3000 RMK AO2
KSJC 030253Z 33015KT 10SM FEW013 SCT020 BKN035 16/11 A2999 RMK AO2 SLP156 T01610106 53001
KSJC 030153Z 34015KT 10SM FEW013 SCT026 18/11 A2999 RMK AO2 SLP154 T01780111
KSJC 030053Z 35016KT 10SM FEW013 FEW026 SCT250 19/11 A2999 RMK AO2 SLP153 T01890111
KSJC 022353Z 33015KT 10SM FEW013 FEW028 20/11 A2999 RMK AO2 SLP155 T02000111 10217 20183 56002
KSJC 022253Z 33014KT 10SM FEW013 FEW040 FEW045 21/11 A2999 RMK AO2 SLP155 FU FEW040 T02060111
KSJC 022153Z 36014KT 10SM FEW014 FEW040 21/11 A2999 RMK AO2 SLP155 T02110111
KSJC 022053Z 33008KT 10SM FEW014 FEW040 21/11 A3000 RMK AO2 SLP156 T02060111 58003
KSJC 021953Z 33010KT 310V010 10SM FEW008 FEW031 20/11 A3000 RMK AO2 SLP160 T02000111
KSJC 021853Z 33008KT 10SM FEW008 FEW030 19/11 A3001 RMK AO2 SLP160 T01890106
KSJC 021813Z 31008KT 10SM FEW008 SCT028 19/11 A3001 RMK AO2 T01890106
KSJC 021753Z VRB03KT 10SM FEW008 SCT022 BKN028 18/11 A3000 RMK AO2 SLP160 T01830106 10183 20144 50002
KSJC 021653Z 00000KT 10SM FEW008 SCT021 BKN028 17/10 A3001 RMK AO2 SLP161 T01670100
KSJC 021553Z 31007KT 10SM FEW008 SCT018 BKN027 16/10 A3001 RMK AO2 SLP160 T01560100
KSJC 021453Z VRB03KT 10SM FEW008 SCT016 BKN022 15/09 A3000 RMK AO2 SLP158 T01500094 51006
KSJC 021353Z 33006KT 10SM FEW009 SCT016 BKN022 14/10 A2999 RMK AO2 SLP156 T01440100
KSJC 021253Z 30006KT 10SM FEW008 SCT016 BKN020 14/10 A2999 RMK AO2 SLP156 T01440100
KSJC 021233Z 30004KT 10SM FEW008 SCT016 BKN020 14/10 A2999 RMK AO2 T01440100
KSJC 021153Z AUTO 01003KT 10SM OVC020 14/10 A2998 RMK AO2 SLP152 T01440100 10144 20139 57005
KSJC 021053Z AUTO 32006KT 10SM OVC018 14/10 A2999 RMK AO2 SLP154 T01440100
KSJC 020953Z AUTO 32007KT 10SM OVC018 14/10 A2999 RMK AO2 SLP156 T01440100
KSJC 020853Z AUTO 34007KT 10SM OVC018 14/11 A3000 RMK AO2 SLP157 T01440106 56004
KSJC 020753Z AUTO 33006KT 10SM OVC017 14/11 A3000 RMK AO2 SLP158 T01440106 402330139
KSJC 020721Z AUTO 33007KT 10SM OVC015 14/11 A3000 RMK AO2 T01440111
KSJC 020706Z AUTO 01004KT 10SM BKN014 14/11 A3000 RMK AO2 T01440111
KSJC 020653Z 01006KT 10SM SCT013 14/11 A3000 RMK AO2 SLP158 T01390111
KSJC 020553Z 35010KT 10SM SCT011 14/11 A3001 RMK AO2 SLP161 T01390111 10217 20139 53011

KSJC 030019Z 0300/0324 33014G20KT P6SM FEW015 SCT020
  FM030300 32011KT P6SM SCT014 SCT180
  FM030600 31007KT P6SM OVC014
  FM031500 VRB05KT P6SM BKN016
  FM031800 33008KT P6SM SCT018 SCT150
  FM032100 32012KT P6SM FEW020 FEW100 SCT120


KSFO 030456Z 27013KT 10SM FEW004 BKN011 OVC019 15/11 A3000 RMK AO2 SLP158 T01500111
KSFO 030356Z 27014G24KT 10SM FEW004 BKN011 OVC017 15/11 A2998 RMK AO2 PK WND 26030/0316 SLP153 T01500111
KSFO 030256Z 27020G28KT 10SM FEW004 SCT010 OVC014 15/11 A2998 RMK AO2 PK WND 26033/0228 SLP150 T01500111 58004
KSFO 030156Z 26022G32KT 10SM FEW004 BKN010 OVC013 16/11 A2998 RMK AO2 PK WND 26033/0126 SLP152 T01560111
KSFO 030056Z 26024G31KT 10SM FEW005 OVC012 16/11 A2998 RMK AO2 PK WND 27037/0004 SLP153 T01610111
KSFO 022356Z 26029G38KT 10SM FEW008 BKN015 17/11 A2999 RMK AO2 PK WND 28039/2301 SLP154 T01670111 10178 20144 56004
KSFO 022256Z 26022G31KT 10SM FEW006 OVC014 17/11 A2999 RMK AO2 PK WND 27034/2225 SLP154 T01720111
KSFO 022156Z 27018G27KT 10SM FEW006 OVC013 17/11 A3000 RMK AO2 PK WND 29029/2142 SLP157 T01720111
KSFO 022056Z 26012G23KT 10SM FEW008 BKN012 OVC014 16/11 A3000 RMK AO2 PK WND 27027/2030 SLP158 T01610106 58003
KSFO 021956Z 28012G21KT 10SM FEW008 BKN012 OVC014 16/11 A3001 RMK AO2 SLP162 T01610106
KSFO 021856Z 26015G19KT 10SM FEW008 BKN012 OVC014 16/11 A3001 RMK AO2 SLP163 T01560106
KSFO 021756Z 26014G23KT 9SM FEW006 BKN011 OVC014 15/11 A3001 RMK AO2 SLP161 T01500111 10150 20128 51005
KSFO 021656Z 28014G22KT 9SM FEW006 BKN011 OVC013 14/11 A3000 RMK AO2 SLP160 T01440106
KSFO 021556Z 27012G19KT 9SM FEW006 BKN010 OVC012 14/11 A3000 RMK AO2 SLP159 T01390106
KSFO 021456Z 27010KT 9SM FEW006 BKN011 OVC013 13/11 A2999 RMK AO2 SLP156 T01330106 51005
KSFO 021356Z 26008KT 9SM FEW005 BKN009 OVC012 13/11 A2999 RMK AO2 SLP155 T01330111
KSFO 021256Z 27012KT 8SM FEW004 BKN008 OVC012 13/11 A2999 RMK AO2 SLP154 T01280106
KSFO 021156Z 27008KT 8SM FEW004 OVC009 13/11 A2998 RMK AO2 SLP151 T01330111 10133 20128 58004
KSFO 021056Z 27008KT 8SM FEW004 BKN008 OVC011 13/11 A2998 RMK AO2 SLP152 T01330111
KSFO 020956Z 27011KT 10SM FEW004 BKN008 OVC011 13/11 A2999 RMK AO2 SLP154 T01330111
KSFO 020856Z 27009KT 10SM FEW004 BKN009 OVC012 13/11 A2999 RMK AO2 SLP155 T01330111 57004
KSFO 020756Z 26009KT 9SM FEW004 BKN008 OVC011 13/11 A2999 RMK AO2 SLP156 T01330111 401940128
KSFO 020656Z 26010KT 9SM FEW003 OVC008 13/11 A3000 RMK AO2 SLP157 T01330111
KSFO 020556Z 27010KT 9SM FEW003 OVC007 13/11 A3000 RMK AO2 SLP159 T01330111 10172 20133 51007

KSFO 030253Z 0303/0406 26020G32KT P6SM BKN010 OVC013
  FM030400 26014G23KT P6SM OVC010
  FM031600 27013G20KT P6SM BKN014
  FM031800 28014G21KT P6SM SCT016 SCT120
  FM032100 27016G25KT P6SM FEW018 SCT080 BKN100
  FM040300 26013G20KT P6SM SCT015 SCT060 BKN080


KHAF 030455Z AUTO 7SM SCT010 OVC019 13/13 A3002 RMK AO2
KHAF 030435Z AUTO 30007KT 7SM BKN010 OVC020 13/13 A3002 RMK AO2
KHAF 030415Z AUTO 30006KT 7SM BKN009 OVC019 13/13 A3002 RMK AO2
KHAF 030355Z AUTO 30007KT 7SM OVC008 13/13 A3001 RMK AO2
KHAF 030335Z AUTO 30006KT 6SM BR OVC008 13/13 A3001 RMK AO2
KHAF 030315Z AUTO 6SM BR OVC009 13/13 A3001 RMK AO2
KHAF 030255Z AUTO 30007KT 7SM OVC009 13/13 A3001 RMK AO2
KHAF 030235Z AUTO 30006KT 6SM BR BKN009 OVC017 13/13 A3001 RMK AO2
KHAF 030215Z AUTO 30007KT 6SM BR SCT009 OVC016 13/13 A3001 RMK AO2
KHAF 030155Z AUTO 30007KT 6SM BR SCT009 OVC016 13/13 A3001 RMK AO2
KHAF 030135Z AUTO 31007KT 6SM BR FEW009 OVC015 14/13 A3001 RMK AO2
KHAF 030115Z AUTO 30008KT 6SM BR OVC015 14/13 A3001 RMK AO2
KHAF 030055Z AUTO 30006KT 7SM BKN012 OVC016 14/13 A3002 RMK AO2
KHAF 030035Z AUTO 30006KT 8SM OVC011 14/13 A3002 RMK AO2
KHAF 030015Z AUTO 28006KT 7SM OVC014 14/13 A3002 RMK AO2
KHAF 022355Z AUTO VRB05KT 6SM BR OVC015 14/13 A3003 RMK AO2
KHAF 022335Z AUTO 27005KT 8SM OVC016 14/13 A3003 RMK AO2
KHAF 022315Z AUTO 28007KT 7SM OVC015 14/13 A3003 RMK AO2
KHAF 022255Z AUTO 27006KT 7SM OVC014 14/13 A3004 RMK AO2
KHAF 022235Z AUTO 28007KT 7SM OVC013 14/13 A3004 RMK AO2
KHAF 022215Z AUTO 28008KT 9SM OVC012 14/14 A3004 RMK AO2
KHAF 022155Z AUTO 28008KT 7SM OVC012 14/14 A3004 RMK AO2
KHAF 022135Z AUTO 28006KT 5SM BR OVC012 13/13 A3004 RMK AO2
KHAF 022115Z AUTO 29009KT 6SM BR BKN009 OVC013 13/13 A3004 RMK AO2
KHAF 022055Z AUTO 28010KT 3SM BR BKN009 OVC013 13/13 A3004 RMK AO2
KHAF 022035Z AUTO 28008KT 5SM BR OVC011 13/13 A3004 RMK AO2
KHAF 022015Z AUTO 30007KT 6SM BR OVC012 14/13 A3005 RMK AO2
KHAF 021955Z AUTO 30009KT 7SM BKN013 13/13 A3004 RMK AO2
KHAF 021935Z AUTO 29007KT 3SM BR FEW003 SCT013 13/13 A3005 RMK AO2
KHAF 021915Z AUTO 27008KT 1/2SM BR BKN005 13/13 A3005 RMK AO2
KHAF 021855Z AUTO 31007KT 1SM BR OVC006 13/13 A3004 RMK AO2
KHAF 021835Z AUTO 31009KT 1 3/4SM BR BKN008 OVC014 13/13 A3004 RMK AO2
KHAF 021815Z AUTO 31006KT 6SM BR SCT008 BKN013 13/13 A3003 RMK AO2
KHAF 021755Z AUTO 30006KT 2SM BR BKN008 BKN013 12/12 A3003 RMK AO2
KHAF 021735Z AUTO 28006KT 2 1/2SM BR BKN008 OVC013 12/12 A3003 RMK AO2
KHAF 021715Z AUTO 28008KT 2SM BR FEW009 BKN013 12/12 A3003 RMK AO2
KHAF 021655Z AUTO 32014KT 3SM BR SCT010 OVC014 13/13 A3003 RMK AO2
KHAF 021635Z AUTO 31012KT 7SM OVC013 13/13 A3003 RMK AO2
KHAF 021615Z AUTO 31008KT 4SM BR FEW008 SCT013 12/12 A3003 RMK AO2
KHAF 021555Z AUTO 31007KT 1 3/4SM BR BKN006 12/12 A3002 RMK AO2
KHAF 021535Z AUTO 32009KT 1 3/4SM BR BKN007 12/12 A3002 RMK AO2
KHAF 021515Z AUTO 32009KT 1 1/4SM BR SCT005 12/12 A3002 RMK AO2
KHAF 021455Z AUTO 1SM BR BKN004 RMK AO2 PNO PWINO P0001
KHAF 021435Z AUTO 30006KT 3/4SM BR OVC003 12/12 A3002 RMK AO2 P0001
KHAF 021415Z AUTO 30006KT 1 1/4SM BR BKN004 OVC008 12/12 A3002 RMK AO2 P0001
KHAF 021355Z AUTO 30007KT 1 1/4SM BR OVC004 12/12 A3001 RMK AO2 P0001
KHAF 021335Z AUTO 29004KT 1SM BR OVC004 12/12 A3001 RMK AO2
KHAF 021315Z AUTO 31005KT 1 1/4SM BR OVC004 12/12 A3001 RMK AO2
KHAF 021255Z AUTO 30007KT 2SM BR OVC005 12/12 A3001 RMK AO2 P0001
KHAF 021235Z AUTO 31006KT 1 3/4SM BR OVC006 12/12 A3001 RMK AO2 P0001
KHAF 021215Z AUTO 31009KT 1 3/4SM BR OVC005 12/12 A3000 RMK AO2 P0001
KHAF 021155Z AUTO 31008KT 1 3/4SM BR OVC006 12/12 A3000 RMK AO2 P0001
KHAF 021135Z AUTO 31008KT 2SM BR BKN005 OVC010 12/12 A3000 RMK AO2
KHAF 021115Z AUTO 32008KT 2SM BR BKN005 OVC010 12/12 A3000 RMK AO2
KHAF 021055Z AUTO 31006KT 1 3/4SM BR OVC005 12/12 A3000 RMK AO2
KHAF 021035Z AUTO 31007KT 1 3/4SM BR OVC005 12/12 A3001 RMK AO2
KHAF 021015Z AUTO 31006KT 2SM BR BKN004 OVC009 12/12 A3001 RMK AO2
KHAF 020955Z AUTO 31009KT 2SM BR BKN005 OVC010 12/12 A3001 RMK AO2
KHAF 020935Z AUTO 31011KT 2SM BR BKN005 OVC010 12/12 A3001 RMK AO2
KHAF 020915Z AUTO 31007KT 1 1/2SM BR OVC005 12/12 A3001 RMK AO2
KHAF 020855Z AUTO 31007KT 1 3/4SM BR OVC005 12/12 A3001 RMK AO2 P0001
KHAF 020835Z AUTO 31007KT 1 1/2SM BR OVC004 12/12 A3002 RMK AO2
KHAF 020815Z AUTO 31007KT 1 3/4SM BR OVC005 12/12 A3002 RMK AO2
KHAF 020755Z AUTO 31008KT 1 3/4SM BR OVC005 12/12 A3002 RMK AO2
KHAF 020735Z AUTO 32007KT 1 1/2SM BR OVC005 12/12 A3002 RMK AO2
KHAF 020715Z AUTO 31009KT 2SM BR BKN004 OVC009 12/12 A3002 RMK AO2
KHAF 020655Z AUTO 33008KT 2SM BR BKN005 OVC010 12/12 A3002 RMK AO2 P0001
KHAF 020635Z AUTO 32010KT 1 1/2SM BR OVC006 12/12 A3002 RMK AO2
KHAF 020615Z AUTO 32010KT 1 3/4SM BR OVC004 12/12 A3003 RMK AO2
KHAF 020555Z AUTO 31010KT 1 3/4SM BR OVC004 12/12 A3003 RMK AO2
KHAF 020535Z AUTO 33009KT 1 1/2SM BR OVC004 12/12 A3003 RMK AO2
KHAF 020515Z AUTO 32008KT 2SM BR OVC005 12/12 A3003 RMK AO2
No TAF found for KHAF